createdAt,value
2023-02-02T00:00:21.145Z,328.00
2023-02-02T00:01:21.152Z,331.00
2023-02-02T00:02:21.146Z,329.00
2023-02-02T00:03:21.089Z,329.00
2023-02-02T00:04:21.047Z,327.00
2023-02-02T00:05:21.049Z,328.00
2023-02-02T00:06:21.011Z,327.00
2023-02-02T00:07:20.963Z,333.00
2023-02-02T00:08:20.950Z,331.00
2023-02-02T00:09:20.924Z,330.00
2023-02-02T00:10:20.905Z,329.00
2023-02-02T00:11:20.877Z,330.00
2023-02-02T00:12:20.842Z,330.00
2023-02-02T00:13:20.822Z,331.00
2023-02-02T00:14:20.797Z,330.00
2023-02-02T00:15:20.789Z,329.00
2023-02-02T00:16:20.785Z,329.00
2023-02-02T00:17:20.731Z,333.00
2023-02-02T00:18:20.723Z,332.00
2023-02-02T00:19:20.677Z,331.00
2023-02-02T00:20:20.667Z,330.00
2023-02-02T00:21:20.638Z,330.00
2023-02-02T00:22:20.618Z,329.00
2023-02-02T00:23:20.596Z,330.00
2023-02-02T00:24:20.563Z,329.00
2023-02-02T00:25:20.548Z,325.00
2023-02-02T00:26:20.533Z,326.00
2023-02-02T00:27:20.489Z,325.00
2023-02-02T00:28:20.480Z,326.00
2023-02-02T00:29:20.452Z,327.00
2023-02-02T00:30:20.418Z,327.00
2023-02-02T00:31:20.442Z,330.00
2023-02-02T00:32:20.362Z,329.00
2023-02-02T00:33:20.337Z,331.00
2023-02-02T00:34:20.311Z,333.00
2023-02-02T00:35:20.287Z,333.00
2023-02-02T00:36:20.264Z,333.00
2023-02-02T00:37:20.259Z,330.00
2023-02-02T00:38:20.218Z,328.00
2023-02-02T00:39:20.186Z,326.00
2023-02-02T00:40:20.156Z,327.00
2023-02-02T00:41:20.137Z,324.00
2023-02-02T00:42:20.111Z,323.00
2023-02-02T00:43:20.098Z,324.00
2023-02-02T00:44:20.065Z,322.00
2023-02-02T00:45:20.047Z,322.00
2023-02-02T00:46:19.993Z,323.00
2023-02-02T00:47:19.967Z,323.00
2023-02-02T00:48:19.948Z,326.00
2023-02-02T00:49:19.922Z,325.00
2023-02-02T00:50:19.902Z,326.00
2023-02-02T00:51:19.878Z,327.00
2023-02-02T00:52:19.843Z,326.00
2023-02-02T00:53:19.819Z,327.00
2023-02-02T00:54:19.797Z,326.00
2023-02-02T00:55:19.801Z,326.00
2023-02-02T00:56:19.748Z,327.00
2023-02-02T00:57:19.726Z,321.00
2023-02-02T00:58:19.699Z,318.00
2023-02-02T00:59:19.683Z,318.00
2023-02-02T01:00:19.654Z,318.00
2023-02-02T01:01:19.657Z,321.00
2023-02-02T01:02:19.620Z,324.00
2023-02-02T01:03:19.591Z,324.00
2023-02-02T01:04:19.566Z,327.00
2023-02-02T01:05:19.532Z,329.00
2023-02-02T01:06:19.511Z,327.00
2023-02-02T01:07:19.474Z,324.00
2023-02-02T01:08:19.436Z,322.00
2023-02-02T01:09:19.426Z,321.00
2023-02-02T01:10:19.404Z,319.00
2023-02-02T01:11:19.348Z,319.00
2023-02-02T01:12:19.330Z,318.00
2023-02-02T01:13:19.306Z,318.00
2023-02-02T01:14:19.285Z,319.00
2023-02-02T01:15:19.257Z,322.00
2023-02-02T01:16:19.289Z,323.00
2023-02-02T01:17:19.201Z,325.00
2023-02-02T01:18:19.167Z,324.00
2023-02-02T01:19:19.148Z,325.00
2023-02-02T01:20:19.116Z,323.00
2023-02-02T01:21:19.089Z,322.00
2023-02-02T01:22:19.079Z,322.00
2023-02-02T01:23:19.057Z,321.00
2023-02-02T01:24:19.033Z,321.00
2023-02-02T01:25:18.994Z,322.00
2023-02-02T01:26:19.025Z,321.00
2023-02-02T01:27:18.940Z,322.00
2023-02-02T01:28:18.932Z,319.00
2023-02-02T01:29:18.897Z,319.00
2023-02-02T01:30:18.881Z,319.00
2023-02-02T01:31:18.942Z,320.00
2023-02-02T01:32:18.831Z,319.00
2023-02-02T01:33:18.818Z,319.00
2023-02-02T01:34:18.784Z,317.00
2023-02-02T01:35:18.761Z,316.00
2023-02-02T01:36:18.739Z,314.00
2023-02-02T01:37:18.742Z,313.00
2023-02-02T01:38:18.691Z,314.00
2023-02-02T01:39:18.672Z,316.00
2023-02-02T01:40:18.650Z,319.00
2023-02-02T01:41:18.614Z,319.00
2023-02-02T01:42:18.609Z,319.00
2023-02-02T01:43:18.575Z,321.00
2023-02-02T01:44:18.575Z,320.00
2023-02-02T01:45:18.522Z,319.00
2023-02-02T01:46:18.523Z,321.00
2023-02-02T01:47:18.479Z,316.00
2023-02-02T01:48:18.490Z,315.00
2023-02-02T01:49:18.427Z,316.00
2023-02-02T01:50:18.438Z,315.00
2023-02-02T01:51:18.392Z,317.00
2023-02-02T01:52:18.385Z,316.00
2023-02-02T01:53:18.349Z,316.00
2023-02-02T01:54:18.360Z,314.00
2023-02-02T01:55:18.321Z,318.00
2023-02-02T01:56:18.297Z,319.00
2023-02-02T01:57:18.275Z,321.00
2023-02-02T01:58:18.261Z,320.00
2023-02-02T01:59:18.239Z,319.00
2023-02-02T02:00:18.236Z,322.00
2023-02-02T02:01:18.313Z,320.00
2023-02-02T02:02:18.255Z,317.00
2023-02-02T02:03:18.163Z,317.00
2023-02-02T02:04:18.143Z,318.00
2023-02-02T02:05:18.124Z,320.00
2023-02-02T02:06:18.135Z,320.00
2023-02-02T02:07:18.091Z,322.00
2023-02-02T02:08:18.067Z,324.00
2023-02-02T02:09:18.064Z,324.00
2023-02-02T02:10:18.049Z,324.00
2023-02-02T02:11:17.998Z,320.00
2023-02-02T02:12:17.989Z,321.00
2023-02-02T02:13:17.969Z,323.00
2023-02-02T02:14:17.943Z,325.00
2023-02-02T02:15:17.924Z,326.00
2023-02-02T02:16:17.923Z,325.00
2023-02-02T02:17:17.887Z,326.00
2023-02-02T02:18:17.856Z,325.00
2023-02-02T02:19:17.831Z,324.00
2023-02-02T02:20:17.825Z,323.00
2023-02-02T02:21:17.793Z,323.00
2023-02-02T02:22:17.767Z,323.00
2023-02-02T02:23:17.742Z,321.00
2023-02-02T02:24:17.740Z,322.00
2023-02-02T02:25:17.711Z,322.00
2023-02-02T02:26:17.692Z,320.00
2023-02-02T02:27:17.665Z,320.00
2023-02-02T02:28:17.633Z,321.00
2023-02-02T02:29:17.648Z,322.00
2023-02-02T02:30:17.604Z,324.00
2023-02-02T02:31:17.681Z,323.00
2023-02-02T02:32:17.548Z,321.00
2023-02-02T02:33:17.514Z,323.00
2023-02-02T02:34:17.499Z,322.00
2023-02-02T02:35:17.476Z,322.00
2023-02-02T02:36:17.448Z,322.00
2023-02-02T02:37:17.452Z,322.00
2023-02-02T02:38:17.409Z,323.00
2023-02-02T02:39:17.406Z,323.00
2023-02-02T02:40:17.390Z,323.00
2023-02-02T02:41:17.373Z,323.00
2023-02-02T02:42:17.339Z,322.00
2023-02-02T02:43:17.310Z,321.00
2023-02-02T02:44:17.288Z,322.00
2023-02-02T02:45:17.281Z,324.00
2023-02-02T02:46:17.263Z,326.00
2023-02-02T02:47:17.203Z,327.00
2023-02-02T02:48:17.175Z,324.00
2023-02-02T02:49:17.152Z,323.00
2023-02-02T02:50:17.144Z,325.00
2023-02-02T02:51:17.109Z,326.00
2023-02-02T02:52:17.086Z,326.00
2023-02-02T02:53:17.065Z,326.00
2023-02-02T02:54:17.032Z,327.00
2023-02-02T02:55:17.032Z,326.00
2023-02-02T02:56:16.988Z,327.00
2023-02-02T02:57:16.964Z,326.00
2023-02-02T02:58:16.962Z,327.00
2023-02-02T02:59:16.929Z,324.00
2023-02-02T03:00:16.901Z,326.00
2023-02-02T03:01:16.954Z,324.00
2023-02-02T03:02:16.934Z,327.00
2023-02-02T03:03:16.835Z,327.00
2023-02-02T03:04:16.813Z,328.00
2023-02-02T03:05:16.804Z,328.00
2023-02-02T03:06:16.788Z,326.00
2023-02-02T03:07:16.752Z,328.00
2023-02-02T03:08:16.729Z,329.00
2023-02-02T03:09:16.704Z,327.00
2023-02-02T03:10:16.675Z,327.00
2023-02-02T03:11:16.681Z,328.00
2023-02-02T03:12:16.639Z,329.00
2023-02-02T03:13:16.623Z,327.00
2023-02-02T03:14:16.618Z,326.00
2023-02-02T03:15:16.588Z,325.00
2023-02-02T03:16:16.576Z,324.00
2023-02-02T03:17:16.560Z,324.00
2023-02-02T03:18:16.528Z,324.00
2023-02-02T03:19:16.514Z,325.00
2023-02-02T03:20:16.495Z,325.00
2023-02-02T03:21:16.493Z,325.00
2023-02-02T03:22:16.459Z,325.00
2023-02-02T03:23:16.436Z,324.00
2023-02-02T03:24:16.414Z,322.00
2023-02-02T03:25:16.415Z,322.00
2023-02-02T03:26:16.450Z,322.00
2023-02-02T03:27:16.358Z,325.00
2023-02-02T03:28:16.339Z,327.00
2023-02-02T03:29:16.307Z,325.00
2023-02-02T03:30:16.296Z,325.00
2023-02-02T03:31:16.294Z,321.00
2023-02-02T03:32:16.251Z,320.00
2023-02-02T03:33:16.231Z,321.00
2023-02-02T03:34:16.223Z,323.00
2023-02-02T03:35:16.200Z,323.00
2023-02-02T03:36:16.173Z,323.00
2023-02-02T03:37:16.152Z,323.00
2023-02-02T03:38:16.130Z,323.00
2023-02-02T03:39:16.116Z,324.00
2023-02-02T03:40:16.081Z,325.00
2023-02-02T03:41:16.072Z,325.00
2023-02-02T03:42:16.038Z,326.00
2023-02-02T03:43:16.024Z,327.00
2023-02-02T03:44:16.010Z,326.00
2023-02-02T03:45:15.985Z,326.00
2023-02-02T03:46:15.987Z,327.00
2023-02-02T03:47:15.943Z,326.00
2023-02-02T03:48:15.918Z,327.00
2023-02-02T03:49:15.902Z,327.00
2023-02-02T03:50:15.885Z,327.00
2023-02-02T03:51:15.859Z,331.00
2023-02-02T03:52:15.849Z,331.00
2023-02-02T03:53:15.821Z,328.00
2023-02-02T03:54:15.791Z,325.00
2023-02-02T03:55:15.792Z,325.00
2023-02-02T03:56:15.760Z,324.00
2023-02-02T03:57:15.743Z,325.00
2023-02-02T03:58:15.725Z,327.00
2023-02-02T03:59:15.711Z,327.00
2023-02-02T04:00:15.688Z,328.00
2023-02-02T04:01:15.656Z,328.00
2023-02-02T04:02:15.637Z,330.00
2023-02-02T04:03:15.637Z,331.00
2023-02-02T04:04:15.598Z,331.00
2023-02-02T04:05:15.586Z,332.00
2023-02-02T04:06:15.575Z,331.00
2023-02-02T04:07:15.554Z,330.00
2023-02-02T04:08:15.535Z,330.00
2023-02-02T04:09:15.529Z,330.00
2023-02-02T04:10:15.502Z,331.00
2023-02-02T04:11:15.489Z,329.00
2023-02-02T04:12:15.481Z,328.00
2023-02-02T04:13:15.452Z,326.00
2023-02-02T04:14:15.426Z,326.00
2023-02-02T04:15:15.416Z,329.00
2023-02-02T04:16:15.446Z,330.00
2023-02-02T04:17:15.378Z,331.00
2023-02-02T04:18:15.344Z,330.00
2023-02-02T04:19:15.325Z,331.00
2023-02-02T04:20:15.314Z,332.00
2023-02-02T04:21:15.309Z,332.00
2023-02-02T04:22:15.266Z,334.00
2023-02-02T04:23:15.248Z,335.00
2023-02-02T04:24:15.232Z,335.00
2023-02-02T04:25:15.204Z,335.00
2023-02-02T04:26:15.173Z,335.00
2023-02-02T04:27:15.166Z,332.00
2023-02-02T04:28:15.142Z,333.00
2023-02-02T04:29:15.113Z,333.00
2023-02-02T04:30:15.093Z,331.00
2023-02-02T04:31:15.111Z,332.00
2023-02-02T04:32:15.071Z,331.00
2023-02-02T04:33:15.038Z,329.00
2023-02-02T04:34:15.001Z,327.00
2023-02-02T04:35:14.977Z,327.00
2023-02-02T04:36:14.932Z,329.00
2023-02-02T04:37:14.934Z,329.00
2023-02-02T04:38:14.878Z,329.00
2023-02-02T04:39:14.893Z,329.00
2023-02-02T04:40:14.835Z,330.00
2023-02-02T04:41:14.809Z,329.00
2023-02-02T04:42:14.799Z,330.00
2023-02-02T04:43:14.775Z,329.00
2023-02-02T04:44:14.771Z,332.00
2023-02-02T04:45:14.731Z,334.00
2023-02-02T04:46:14.730Z,338.00
2023-02-02T04:47:14.678Z,340.00
2023-02-02T04:48:14.686Z,341.00
2023-02-02T04:49:14.640Z,342.00
2023-02-02T04:50:14.626Z,342.00
2023-02-02T04:51:14.608Z,342.00
2023-02-02T04:52:14.567Z,338.00
2023-02-02T04:53:14.552Z,335.00
2023-02-02T04:54:14.526Z,335.00
2023-02-02T04:55:14.518Z,336.00
2023-02-02T04:56:14.491Z,334.00
2023-02-02T04:57:14.486Z,332.00
2023-02-02T04:58:14.458Z,332.00
2023-02-02T04:59:14.437Z,332.00
2023-02-02T05:00:14.431Z,332.00
2023-02-02T05:01:14.458Z,329.00
2023-02-02T05:02:14.388Z,328.00
2023-02-02T05:03:14.368Z,328.00
2023-02-02T05:04:14.404Z,324.00
2023-02-02T05:05:14.348Z,324.00
2023-02-02T05:06:15.957Z,324.00
2023-02-02T05:07:14.307Z,326.00
2023-02-02T05:08:14.273Z,326.00
2023-02-02T05:09:14.262Z,326.00
2023-02-02T05:10:14.260Z,327.00
2023-02-02T05:11:14.214Z,327.00
2023-02-02T05:12:14.199Z,329.00
2023-02-02T05:13:14.170Z,330.00
2023-02-02T05:14:14.145Z,328.00
2023-02-02T05:15:14.147Z,327.00
2023-02-02T05:16:14.178Z,328.00
2023-02-02T05:17:14.105Z,328.00
2023-02-02T05:18:14.076Z,327.00
2023-02-02T05:19:14.265Z,327.00
2023-02-02T05:20:14.037Z,326.00
2023-02-02T05:21:14.013Z,325.00
2023-02-02T05:22:13.980Z,322.00
2023-02-02T05:23:13.948Z,321.00
2023-02-02T05:24:13.922Z,322.00
2023-02-02T05:25:13.890Z,324.00
2023-02-02T05:26:13.861Z,324.00
2023-02-02T05:27:13.844Z,323.00
2023-02-02T05:28:13.827Z,325.00
2023-02-02T05:29:13.786Z,325.00
2023-02-02T05:30:13.750Z,325.00
2023-02-02T05:31:13.800Z,322.00
2023-02-02T05:32:13.692Z,321.00
2023-02-02T05:33:13.687Z,324.00
2023-02-02T05:34:13.642Z,325.00
2023-02-02T05:35:13.609Z,324.00
2023-02-02T05:36:13.585Z,321.00
2023-02-02T05:37:13.552Z,323.00
2023-02-02T05:38:13.540Z,326.00
2023-02-02T05:39:13.490Z,327.00
2023-02-02T05:40:13.455Z,325.00
2023-02-02T05:41:13.432Z,326.00
2023-02-02T05:42:13.402Z,325.00
2023-02-02T05:43:13.385Z,327.00
2023-02-02T05:44:13.363Z,329.00
2023-02-02T05:45:13.344Z,329.00
2023-02-02T05:46:13.382Z,329.00
2023-02-02T05:47:13.299Z,329.00
2023-02-02T05:48:13.272Z,330.00
2023-02-02T05:49:13.255Z,330.00
2023-02-02T05:50:13.224Z,333.00
2023-02-02T05:51:13.204Z,338.00
2023-02-02T05:52:13.174Z,336.00
2023-02-02T05:53:13.149Z,333.00
2023-02-02T05:54:13.148Z,329.00
2023-02-02T05:55:13.099Z,325.00
2023-02-02T05:56:13.074Z,324.00
2023-02-02T05:57:13.039Z,324.00
2023-02-02T05:58:13.013Z,325.00
2023-02-02T05:59:12.994Z,323.00
2023-02-02T06:00:13.102Z,325.00
2023-02-02T06:01:12.940Z,326.00
2023-02-02T06:02:12.897Z,327.00
2023-02-02T06:03:13.111Z,328.00
2023-02-02T06:04:12.886Z,328.00
2023-02-02T06:23:12.362Z,328.00
2023-02-02T06:24:12.338Z,325.00
2023-02-02T06:25:12.308Z,325.00
2023-02-02T06:26:12.297Z,327.00
2023-02-02T06:27:12.266Z,328.00
2023-02-02T06:28:12.234Z,329.00
2023-02-02T06:29:12.208Z,327.00
2023-02-02T06:30:12.187Z,327.00
2023-02-02T06:31:12.246Z,326.00
2023-02-02T06:32:12.281Z,327.00
2023-02-02T06:33:12.140Z,326.00
2023-02-02T06:34:12.093Z,345.00
2023-02-02T06:36:12.086Z,387.00
2023-02-02T06:37:12.033Z,386.00
2023-02-02T06:38:12.015Z,405.00
2023-02-02T06:39:11.997Z,461.00
2023-02-02T06:40:11.966Z,481.00
2023-02-02T06:41:11.932Z,539.00
2023-02-02T06:42:20.713Z,549.00
2023-02-02T06:43:11.891Z,601.00
2023-02-02T06:44:11.866Z,642.00
2023-02-02T06:45:11.826Z,681.00
2023-02-02T06:46:11.842Z,696.00
2023-02-02T06:47:11.792Z,710.00
2023-02-02T06:48:11.777Z,719.00
2023-02-02T06:49:11.730Z,763.00
2023-02-02T06:50:11.687Z,778.00
2023-02-02T06:51:11.661Z,786.00
2023-02-02T06:52:11.637Z,800.00
2023-02-02T06:53:11.627Z,817.00
2023-02-02T06:54:11.592Z,852.00
2023-02-02T06:55:11.563Z,862.00
2023-02-02T06:56:11.531Z,968.00
2023-02-02T06:57:11.509Z,977.00
2023-02-02T06:58:11.483Z,994.00
2023-02-02T06:59:11.445Z,1000.00
2023-02-02T07:00:11.433Z,1021.00
2023-02-02T07:01:11.487Z,1090.00
2023-02-02T07:02:11.407Z,1095.00
2023-02-02T07:03:11.332Z,1102.00
2023-02-02T07:04:11.315Z,1099.00
2023-02-02T07:05:11.285Z,1105.00
2023-02-02T07:06:11.252Z,1120.00
2023-02-02T07:07:11.226Z,1138.00
2023-02-02T07:08:11.217Z,1155.00
2023-02-02T07:09:11.170Z,1142.00
2023-02-02T07:11:13.389Z,1151.00
2023-02-02T07:11:15.400Z,1149.00
2023-02-02T07:12:11.098Z,1150.00
2023-02-02T07:13:11.050Z,1159.00
2023-02-02T07:14:11.020Z,1173.00
2023-02-02T07:15:10.992Z,1188.00
2023-02-02T07:16:11.050Z,1199.00
2023-02-02T07:17:10.925Z,1209.00
2023-02-02T07:18:10.899Z,1216.00
2023-02-02T07:19:10.869Z,1234.00
2023-02-02T07:20:10.833Z,1273.00
2023-02-02T07:21:10.810Z,1214.00
2023-02-02T07:22:10.780Z,1057.00
2023-02-02T07:23:10.742Z,834.00
2023-02-02T07:24:10.736Z,737.00
2023-02-02T07:25:10.723Z,764.00
2023-02-02T07:26:10.652Z,766.00
2023-02-02T07:27:10.639Z,710.00
2023-02-02T07:28:10.671Z,670.00
2023-02-02T07:29:10.584Z,666.00
2023-02-02T07:30:10.604Z,663.00
2023-02-02T07:31:10.654Z,618.00
2023-02-02T07:32:10.513Z,621.00
2023-02-02T07:33:10.488Z,606.00
2023-02-02T07:34:10.471Z,517.00
2023-02-02T07:35:10.448Z,510.00
2023-02-02T07:36:10.425Z,509.00
2023-02-02T07:37:10.408Z,535.00
2023-02-02T07:38:10.386Z,552.00
2023-02-02T07:39:10.371Z,547.00
2023-02-02T07:40:10.349Z,484.00
2023-02-02T07:41:10.318Z,512.00
2023-02-02T07:42:10.302Z,596.00
2023-02-02T07:43:10.303Z,583.00
2023-02-02T07:44:10.454Z,583.00
2023-02-02T07:45:36.510Z,586.00
2023-02-02T07:46:11.324Z,625.00
2023-02-02T07:48:10.232Z,700.00
2023-02-02T07:50:10.127Z,607.00
2023-02-02T07:51:10.113Z,526.00
2023-02-02T07:52:10.157Z,602.00
2023-02-02T07:53:10.103Z,675.00
2023-02-02T07:54:10.085Z,746.00
2023-02-02T07:55:14.861Z,761.00
2023-02-02T07:56:11.074Z,736.00
2023-02-02T07:57:10.037Z,722.00
2023-02-02T07:58:10.024Z,660.00
2023-02-02T07:59:09.992Z,626.00
2023-02-02T08:00:09.959Z,579.00
2023-02-02T08:01:09.962Z,597.00
2023-02-02T08:02:09.917Z,590.00
2023-02-02T08:03:09.988Z,578.00
2023-02-02T08:04:09.971Z,565.00
2023-02-02T08:05:09.886Z,555.00
2023-02-02T08:06:09.865Z,532.00
2023-02-02T08:07:09.850Z,522.00
2023-02-02T08:08:09.832Z,525.00
2023-02-02T08:09:09.789Z,521.00
2023-02-02T08:10:09.797Z,505.00
2023-02-02T08:11:09.736Z,494.00
2023-02-02T08:12:09.706Z,491.00
2023-02-02T08:13:09.687Z,500.00
2023-02-02T08:14:09.673Z,508.00
2023-02-02T08:15:10.665Z,506.00
2023-02-02T08:16:09.683Z,504.00
2023-02-02T08:17:09.593Z,500.00
2023-02-02T08:18:09.615Z,496.00
2023-02-02T08:19:09.546Z,494.00
2023-02-02T08:20:09.542Z,492.00
2023-02-02T08:21:09.540Z,480.00
2023-02-02T08:22:09.495Z,463.00
2023-02-02T08:23:09.479Z,472.00
2023-02-02T08:24:09.462Z,477.00
2023-02-02T08:25:09.444Z,485.00
2023-02-02T08:26:09.436Z,521.00
2023-02-02T08:27:09.422Z,496.00
2023-02-02T08:28:09.398Z,488.00
2023-02-02T08:29:09.383Z,483.00
2023-02-02T08:30:09.373Z,485.00
2023-02-02T08:31:09.422Z,478.00
2023-02-02T08:32:09.354Z,478.00
2023-02-02T08:33:09.327Z,479.00
2023-02-02T08:34:09.330Z,488.00
2023-02-02T08:35:09.288Z,480.00
2023-02-02T08:36:09.318Z,492.00
2023-02-02T08:37:09.456Z,521.00
2023-02-02T08:38:09.259Z,509.00
2023-02-02T08:39:09.331Z,514.00
2023-02-02T08:40:09.282Z,518.00
2023-02-02T08:41:09.232Z,597.00
2023-02-02T08:42:09.203Z,541.00
2023-02-02T08:43:10.649Z,539.00
2023-02-02T08:44:11.297Z,583.00
2023-02-02T08:46:02.882Z,592.00
2023-02-02T08:46:10.236Z,614.00
2023-02-02T08:47:09.227Z,640.00
2023-02-02T08:48:12.644Z,649.00
2023-02-02T08:49:09.122Z,664.00
2023-02-02T08:50:09.081Z,696.00
2023-02-02T08:51:09.074Z,706.00
2023-02-02T08:52:09.043Z,717.00
2023-02-02T08:53:09.011Z,778.00
2023-02-02T08:54:09.023Z,775.00
2023-02-02T08:55:08.975Z,770.00
2023-02-02T08:56:08.970Z,823.00
2023-02-02T08:57:08.948Z,882.00
2023-02-02T08:58:08.919Z,869.00
2023-02-02T08:59:08.914Z,849.00
2023-02-02T09:00:08.886Z,847.00
2023-02-02T09:01:08.915Z,840.00
2023-02-02T09:02:08.835Z,858.00
2023-02-02T09:03:08.795Z,790.00
2023-02-02T09:04:08.810Z,863.00
2023-02-02T09:05:08.740Z,848.00
2023-02-02T09:06:08.731Z,846.00
2023-02-02T09:07:08.698Z,853.00
2023-02-02T09:08:08.679Z,894.00
2023-02-02T09:09:08.656Z,898.00
2023-02-02T09:10:08.630Z,942.00
2023-02-02T09:11:08.609Z,942.00
2023-02-02T09:12:08.597Z,934.00
2023-02-02T09:13:08.568Z,882.00
2023-02-02T09:14:08.553Z,907.00
2023-02-02T09:15:08.529Z,936.00
2023-02-02T09:16:08.591Z,938.00
2023-02-02T09:17:08.500Z,986.00
2023-02-02T09:18:08.471Z,984.00
2023-02-02T09:19:08.432Z,981.00
2023-02-02T09:20:08.440Z,968.00
2023-02-02T09:21:08.401Z,961.00
2023-02-02T09:22:08.423Z,941.00
2023-02-02T09:23:08.370Z,951.00
2023-02-02T09:24:08.345Z,999.00
2023-02-02T09:25:08.313Z,998.00
2023-02-02T09:26:08.356Z,990.00
2023-02-02T09:27:08.277Z,988.00
2023-02-02T09:28:08.254Z,991.00
2023-02-02T09:29:08.247Z,1037.00
2023-02-02T09:30:08.255Z,1011.00
2023-02-02T09:31:08.277Z,897.00
2023-02-02T09:32:08.495Z,789.00
2023-02-02T09:33:08.159Z,706.00
2023-02-02T09:34:08.130Z,722.00
2023-02-02T09:35:08.130Z,737.00
2023-02-02T09:36:08.088Z,742.00
2023-02-02T09:37:08.093Z,748.00
2023-02-02T09:38:08.059Z,748.00
2023-02-02T09:39:08.025Z,753.00
2023-02-02T09:40:08.008Z,761.00
2023-02-02T09:41:07.985Z,771.00
2023-02-02T09:42:08.009Z,781.00
2023-02-02T09:43:07.928Z,798.00
2023-02-02T09:44:07.908Z,816.00
2023-02-02T09:45:07.886Z,849.00
2023-02-02T09:46:07.946Z,851.00
2023-02-02T09:47:07.844Z,864.00
2023-02-02T09:48:07.817Z,967.00
2023-02-02T09:49:07.827Z,918.00
2023-02-02T09:50:07.768Z,897.00
2023-02-02T09:51:07.748Z,957.00
2023-02-02T09:52:07.724Z,934.00
2023-02-02T09:53:08.067Z,968.00
2023-02-02T09:54:07.652Z,960.00
2023-02-02T09:55:07.630Z,966.00
2023-02-02T09:56:07.592Z,1025.00
2023-02-02T09:57:07.567Z,1046.00
2023-02-02T09:58:07.575Z,1056.00
2023-02-02T09:59:19.415Z,1070.00
2023-02-02T10:00:08.541Z,1094.00
2023-02-02T10:01:07.517Z,1105.00
2023-02-02T10:02:07.422Z,1118.00
2023-02-02T10:03:07.412Z,1140.00
2023-02-02T10:04:07.431Z,1148.00
2023-02-02T10:05:08.318Z,1164.00
2023-02-02T10:06:07.319Z,1171.00
2023-02-02T10:07:07.289Z,1173.00
2023-02-02T10:08:07.265Z,1178.00
2023-02-02T10:09:07.229Z,1184.00
2023-02-02T10:10:07.197Z,1196.00
2023-02-02T10:11:07.157Z,1209.00
2023-02-02T10:12:07.129Z,1217.00
2023-02-02T10:13:07.122Z,1235.00
2023-02-02T10:14:07.097Z,1246.00
2023-02-02T10:15:07.056Z,1258.00
2023-02-02T10:16:07.060Z,1290.00
2023-02-02T10:17:06.991Z,1311.00
2023-02-02T10:18:06.959Z,1316.00
2023-02-02T10:19:06.927Z,1319.00
2023-02-02T10:20:06.893Z,1329.00
2023-02-02T10:21:06.997Z,1342.00
2023-02-02T10:22:06.833Z,1357.00
2023-02-02T10:23:06.794Z,1368.00
2023-02-02T10:24:06.771Z,1370.00
2023-02-02T10:25:06.729Z,1374.00
2023-02-02T10:26:06.697Z,1375.00
2023-02-02T10:27:06.664Z,1428.00
2023-02-02T10:28:06.639Z,1437.00
2023-02-02T10:29:06.611Z,1451.00
2023-02-02T10:30:06.594Z,1465.00
2023-02-02T10:31:06.642Z,1471.00
2023-02-02T10:32:06.617Z,1479.00
2023-02-02T10:33:06.488Z,1489.00
2023-02-02T10:34:06.438Z,1494.00
2023-02-02T10:35:13.438Z,1531.00
2023-02-02T10:36:07.379Z,1539.00
2023-02-02T10:37:06.338Z,1551.00
2023-02-02T10:38:07.455Z,1566.00
2023-02-02T10:39:06.277Z,1568.00
2023-02-02T10:40:06.337Z,1570.00
2023-02-02T10:41:06.194Z,1615.00
2023-02-02T10:42:06.191Z,1552.00
2023-02-02T10:43:06.148Z,1522.00
2023-02-02T10:44:06.126Z,1465.00
2023-02-02T10:45:06.055Z,1485.00
2023-02-02T10:46:06.046Z,1504.00
2023-02-02T10:47:05.983Z,1503.00
2023-02-02T10:48:05.930Z,1500.00
2023-02-02T10:49:05.923Z,1495.00
2023-02-02T10:50:05.877Z,1486.00
2023-02-02T10:51:05.861Z,1480.00
2023-02-02T10:52:05.789Z,1469.00
2023-02-02T10:53:05.762Z,1468.00
2023-02-02T10:54:05.726Z,1463.00
2023-02-02T10:55:05.695Z,1457.00
2023-02-02T10:56:05.660Z,1455.00
2023-02-02T10:57:05.636Z,1438.00
2023-02-02T10:58:05.666Z,1426.00
2023-02-02T10:59:05.572Z,1410.00
2023-02-02T11:00:05.536Z,1396.00
2023-02-02T11:01:05.488Z,1387.00
2023-02-02T11:02:19.948Z,1372.00
2023-02-02T11:03:06.463Z,1361.00
2023-02-02T11:04:05.386Z,1346.00
2023-02-02T11:05:05.344Z,1335.00
2023-02-02T11:06:05.310Z,1325.00
2023-02-02T11:07:05.280Z,1312.00
2023-02-02T11:08:05.228Z,1303.00
2023-02-02T11:09:05.199Z,1277.00
2023-02-02T11:10:05.164Z,1271.00
2023-02-02T11:11:05.137Z,1254.00
2023-02-02T11:12:05.114Z,1239.00
2023-02-02T11:13:05.101Z,1232.00
2023-02-02T11:14:05.074Z,1216.00
2023-02-02T11:15:05.149Z,1198.00
2023-02-02T11:16:05.895Z,1186.00
2023-02-02T11:17:04.950Z,1185.00
2023-02-02T11:18:04.943Z,1173.00
2023-02-02T11:19:04.916Z,1168.00
2023-02-02T11:20:04.867Z,1160.00
2023-02-02T11:21:04.847Z,1155.00
2023-02-02T11:22:04.805Z,1149.00
2023-02-02T11:23:04.783Z,1141.00
2023-02-02T11:24:04.752Z,1133.00
2023-02-02T11:25:04.723Z,1126.00
2023-02-02T11:26:04.689Z,1117.00
2023-02-02T11:27:04.698Z,1110.00
2023-02-02T11:28:04.645Z,1102.00
2023-02-02T11:29:04.616Z,1092.00
2023-02-02T11:30:04.579Z,1070.00
2023-02-02T11:31:04.643Z,1030.00
2023-02-02T11:32:04.555Z,1021.00
2023-02-02T11:33:04.497Z,1015.00
2023-02-02T11:34:04.485Z,1015.00
2023-02-02T11:35:04.458Z,1020.00
2023-02-02T11:36:04.424Z,1022.00
2023-02-02T11:37:04.392Z,884.00
2023-02-02T11:38:04.363Z,941.00
2023-02-02T11:39:04.334Z,943.00
2023-02-02T11:40:04.336Z,944.00
2023-02-02T11:41:04.339Z,941.00
2023-02-02T11:42:04.264Z,940.00
2023-02-02T11:43:04.269Z,929.00
2023-02-02T11:44:04.190Z,917.00
2023-02-02T11:45:04.161Z,906.00
2023-02-02T11:46:04.298Z,900.00
2023-02-02T11:47:04.115Z,894.00
2023-02-02T11:48:04.065Z,904.00
2023-02-02T11:49:04.038Z,910.00
2023-02-02T11:50:04.039Z,961.00
2023-02-02T11:51:04.069Z,968.00
2023-02-02T11:52:03.949Z,972.00
2023-02-02T12:08:03.449Z,957.00
2023-02-02T12:10:03.426Z,954.00
2023-02-02T12:11:03.370Z,952.00
2023-02-02T12:12:03.352Z,956.00
2023-02-02T12:13:03.338Z,956.00
2023-02-02T12:14:03.295Z,958.00
2023-02-02T12:15:03.267Z,960.00
2023-02-02T12:16:03.231Z,957.00
2023-02-02T12:17:03.192Z,951.00
2023-02-02T12:18:03.161Z,954.00
2023-02-02T12:19:03.150Z,951.00
2023-02-02T12:20:03.097Z,950.00
2023-02-02T12:21:05.963Z,950.00
2023-02-02T12:22:03.029Z,945.00
2023-02-02T12:23:02.997Z,948.00
2023-02-02T12:24:02.960Z,944.00
2023-02-02T12:25:02.931Z,945.00
2023-02-02T12:26:02.901Z,944.00
2023-02-02T12:27:02.886Z,948.00
2023-02-02T13:07:01.685Z,924.00
2023-02-02T13:08:01.658Z,924.00
2023-02-02T13:09:01.649Z,925.00
2023-02-02T13:10:01.607Z,926.00
2023-02-02T13:11:01.605Z,925.00
2023-02-02T13:12:01.562Z,927.00
2023-02-02T13:13:01.554Z,929.00
2023-02-02T13:14:01.526Z,926.00
2023-02-02T13:15:01.484Z,927.00
2023-02-02T13:16:01.454Z,928.00
2023-02-02T13:17:01.497Z,929.00
2023-02-02T13:18:01.412Z,930.00
2023-02-02T13:19:01.349Z,928.00
2023-02-02T13:20:01.322Z,924.00
2023-02-02T13:21:01.290Z,919.00
2023-02-02T13:22:01.267Z,921.00
2023-02-02T13:23:01.235Z,920.00
2023-02-02T13:24:01.206Z,917.00
2023-02-02T13:25:01.451Z,919.00
2023-02-02T13:26:01.251Z,914.00
2023-02-02T13:27:01.327Z,912.00
2023-02-02T13:28:01.109Z,913.00
2023-02-02T13:29:01.054Z,911.00
2023-02-02T13:30:01.047Z,907.00
2023-02-02T13:31:01.141Z,905.00
2023-02-02T13:32:00.982Z,901.00
2023-02-02T13:33:00.951Z,899.00
2023-02-02T13:34:00.896Z,901.00
2023-02-02T13:35:00.866Z,901.00
2023-02-02T13:36:00.861Z,902.00
2023-02-02T13:37:00.815Z,900.00
2023-02-02T13:38:00.791Z,901.00
2023-02-02T13:39:00.773Z,900.00
2023-02-02T13:40:00.745Z,897.00